Darstellungsparameter: Aktuell verwendete Einstellungen:
Skalierung der Graphiken ... ?
xyx+y,   Skalierungsfaktor:      Skalierung: Modus: x, Faktor: 1
Darstellungszeitraum ... ?
Vom - - bis: - -   Zeitraum: 08.04.2009 - 10.04.2009
Min/Max/Avg-Anzeige ... ?
Zeige MMA aktuell
Zeige MMA Monat
Zeige MMA alles
Zeige --A aktuell
Zeige --A Monat
Zeige --A alles
Keine MMA-Anzeige
MMA:
Average (ber die Originaldaten)
MMA-Basis: 08.04.2009 - 10.04.2009
Quicknavigation für Darstellung... ?
Tage:      1T, 2T, 3T, 5T -1T -2T -3T -5T +1T +2T +3T +5T
Wochen: 1W, 2W, 3W -1W -2W -3W +1W +2W +3W
Monate: 1M, 3M, 6M -1M -3M -6M +1M +3M +6M
Jahre:    1J, 3J, 5J, 10J -1J -3J -5J -10J +1J +3J +5J +10J
Nutze für die Darstellung ... ?
Originaldaten oder Mittelwerte auf ...
Stundenbasis Tagesbasis Wochenbasis
Monatsbasis Jahresbasis      Datenbasis: Original-Daten
Darstellen als:
Statistik (Auto) Statistik J:M      Darstellung:
Zur Graphik,    zurück zur Übersicht aller Sensoren.
 
Tabellarische Datenbersicht: ?
 
Sensor: Nr:Datum:Temp:Abs-Feuchte:Windchill:Wind:
Aussen-T/F 1 08-04-2009 00:04:42 12.6 C 8.3 g/m*3 12.6 C 0 km/h
2 08-04-2009 00:16:42 12.5 C 8.25 g/m*3 12.5 C 0 km/h
3 08-04-2009 00:28:42 12.6 C 8.3 g/m*3 12.6 C 0 km/h
4 08-04-2009 00:40:42 12.5 C 8.14 g/m*3 12.5 C 0 km/h
5 08-04-2009 00:52:42 12.4 C 8.09 g/m*3 12.4 C 0 km/h
6 08-04-2009 01:04:42 12.5 C 8.14 g/m*3 12.5 C 0 km/h
7 08-04-2009 01:16:43 12.4 C 8.09 g/m*3 12.4 C 0 km/h
8 08-04-2009 01:28:43 12.2 C 7.99 g/m*3 12.2 C 0 km/h
9 08-04-2009 01:40:43 12.2 C 8.09 g/m*3 12.2 C 0 km/h
10 08-04-2009 01:52:43 12.2 C 8.09 g/m*3 12.2 C 0 km/h
11 08-04-2009 02:04:43 12.2 C 8.09 g/m*3 12.2 C 0 km/h
12 08-04-2009 02:16:43 12.2 C 8.09 g/m*3 12.2 C 0 km/h
13 08-04-2009 02:28:43 12.1 C 7.83 g/m*3 12.1 C 0 km/h
14 08-04-2009 02:40:43 12.1 C 7.61 g/m*3 12.1 C 0 km/h
15 08-04-2009 02:52:43 12.1 C 7.4 g/m*3 12.1 C 0 km/h
16 08-04-2009 03:04:43 12 C 7.25 g/m*3 12 C 0 km/h
17 08-04-2009 03:16:43 12 C 7.25 g/m*3 12 C 0 km/h
18 08-04-2009 03:28:43 11.8 C 7.26 g/m*3 11.8 C 0 km/h
19 08-04-2009 03:40:43 11.7 C 7.22 g/m*3 11.7 C 0 km/h
20 08-04-2009 03:52:43 11.5 C 7.23 g/m*3 11.5 C 0 km/h
21 08-04-2009 04:04:43 11.6 C 7.38 g/m*3 11.6 C 0 km/h
22 08-04-2009 04:16:43 11.4 C 7.19 g/m*3 11.4 C 0 km/h
23 08-04-2009 04:28:43 11.3 C 7.14 g/m*3 11.3 C 0 km/h
24 08-04-2009 04:40:43 11.3 C 7.24 g/m*3 11.3 C 0 km/h
25 08-04-2009 04:52:43 11.4 C 7.39 g/m*3 11.4 C 0 km/h
Sensor: Nr:Datum:Temp:Abs-Feuchte:Windchill:Wind:
Aussen-T/F 26 08-04-2009 05:04:43 11.4 C 7.39 g/m*3 11.4 C 0 km/h
27 08-04-2009 05:16:43 11.3 C 7.34 g/m*3 11.3 C 0 km/h
28 08-04-2009 05:28:44 11.4 C 7.39 g/m*3 11.4 C 0 km/h
29 08-04-2009 05:40:44 11.4 C 7.39 g/m*3 11.4 C 0 km/h
30 08-04-2009 05:52:44 11.5 C 7.44 g/m*3 11.5 C 0 km/h
31 08-04-2009 06:04:44 11.7 C 7.53 g/m*3 11.7 C 0 km/h
32 08-04-2009 06:16:44 11.5 C 7.44 g/m*3 11.5 C 0 km/h
33 08-04-2009 06:28:44 11.7 C 7.53 g/m*3 11.7 C 0 km/h
34 08-04-2009 06:40:44 11.4 C 7.29 g/m*3 11.4 C 0 km/h
35 08-04-2009 06:52:44 11.4 C 7.29 g/m*3 11.4 C 0 km/h
36 08-04-2009 07:04:41 11.2 C 7.2 g/m*3 11.2 C 0 km/h
37 08-04-2009 07:16:42 11.2 C 7.2 g/m*3 11.2 C 0 km/h
38 08-04-2009 07:28:42 11.1 C 7.25 g/m*3 11.1 C 0 km/h
39 08-04-2009 07:40:41 11.2 C 7.2 g/m*3 11.2 C 0 km/h
40 08-04-2009 07:52:41 11.3 C 7.24 g/m*3 11.3 C 0 km/h
41 08-04-2009 08:04:41 11.3 C 7.24 g/m*3 11.3 C 0 km/h
42 08-04-2009 08:16:41 11.5 C 7.23 g/m*3 11.5 C 0 km/h
43 08-04-2009 08:28:41 11.7 C 7.22 g/m*3 11.7 C 0 km/h
44 08-04-2009 08:40:40 11.9 C 7.1 g/m*3 11.9 C 0 km/h
45 08-04-2009 08:52:40 12.1 C 7.08 g/m*3 12.1 C 0 km/h
46 08-04-2009 09:04:40 12.2 C 7.01 g/m*3 12.2 C 0 km/h
47 08-04-2009 09:16:40 12 C 6.93 g/m*3 12 C 0 km/h
48 08-04-2009 09:28:40 11.9 C 6.99 g/m*3 11.9 C 0 km/h
49 08-04-2009 09:40:40 12.1 C 6.76 g/m*3 12.1 C 0 km/h
50 08-04-2009 09:52:40 12.5 C 6.71 g/m*3 12.5 C 0 km/h
Sensor: Nr:Datum:Temp:Abs-Feuchte:Windchill:Wind:
Aussen-T/F 51 08-04-2009 10:04:40 12.9 C 6.65 g/m*3 12.9 C 0 km/h
52 08-04-2009 10:16:39 13.3 C 6.47 g/m*3 13.3 C 0 km/h
53 08-04-2009 10:28:39 13.5 C 6.2 g/m*3 13.5 C 0 km/h
54 08-04-2009 10:40:39 14.2 C 6.11 g/m*3 14.2 C 0 km/h
55 08-04-2009 10:52:39 14.5 C 5.72 g/m*3 14.5 C 0 km/h
56 08-04-2009 11:04:39 15.1 C 5.81 g/m*3 15.1 C 0 km/h
57 08-04-2009 11:16:39 15.4 C 5.52 g/m*3 15.4 C 0 km/h
58 08-04-2009 11:28:39 15.1 C 5.16 g/m*3 15.1 C 0 km/h
59 08-04-2009 11:40:39 14.8 C 5.19 g/m*3 14.8 C 0 km/h
60 08-04-2009 11:52:39 14.9 C 4.97 g/m*3 14.9 C 0 km/h
61 08-04-2009 12:04:38 15.4 C 5.12 g/m*3 15.4 C 0 km/h
62 08-04-2009 12:16:39 15.8 C 5.38 g/m*3 15.8 C 0 km/h
63 08-04-2009 12:28:39 15.8 C 5.25 g/m*3 15.8 C 0 km/h
64 08-04-2009 12:40:38 15.4 C 4.86 g/m*3 15.4 C 0 km/h
65 08-04-2009 12:52:38 16.2 C 4.96 g/m*3 16.2 C 0 km/h
66 08-04-2009 13:04:37 16.3 C 4.44 g/m*3 16.3 C 0 km/h
67 08-04-2009 13:16:38 16.7 C 4.55 g/m*3 16.7 C 0 km/h
68 08-04-2009 13:28:38 16.8 C 4.15 g/m*3 16.8 C 0 km/h
69 08-04-2009 13:40:38 17.3 C 3.98 g/m*3 17.3 C 0 km/h
70 08-04-2009 13:52:37 17.7 C 4.07 g/m*3 17.7 C 0 km/h
71 08-04-2009 14:04:38 17.5 C 3.88 g/m*3 17.5 C 0 km/h
72 08-04-2009 14:16:37 17.9 C 3.51 g/m*3 17.9 C 0 km/h
73 08-04-2009 14:28:37 18 C 3.07 g/m*3 18 C 0 km/h
74 08-04-2009 14:40:37 17.8 C 3.04 g/m*3 17.8 C 0 km/h
75 08-04-2009 14:52:37 17.4 C 2.96 g/m*3 17.4 C 0 km/h
Sensor: Nr:Datum:Temp:Abs-Feuchte:Windchill:Wind:
Aussen-T/F 76 08-04-2009 15:04:37 17.7 C 3.17 g/m*3 17.7 C 0 km/h
77 08-04-2009 15:16:36 18.4 C 3.15 g/m*3 18.4 C 0 km/h
78 08-04-2009 15:28:36 17.5 C 2.98 g/m*3 17.5 C 0 km/h
79 08-04-2009 15:40:37 17.2 C 3.08 g/m*3 17.2 C 0 km/h
80 08-04-2009 15:52:36 17.5 C 3.13 g/m*3 17.5 C 0 km/h
81 08-04-2009 16:04:36 17.7 C 3.17 g/m*3 17.7 C 0 km/h
82 08-04-2009 16:16:36 17.7 C 3.32 g/m*3 17.7 C 0 km/h
83 08-04-2009 16:28:36 17.7 C 3.32 g/m*3 17.7 C 0 km/h
84 08-04-2009 16:40:36 17.5 C 3.13 g/m*3 17.5 C 0 km/h
85 08-04-2009 16:52:36 17.5 C 2.98 g/m*3 17.5 C 0 km/h
86 08-04-2009 17:04:35 17.6 C 3 g/m*3 17.6 C 0 km/h
87 08-04-2009 17:16:36 17.6 C 3 g/m*3 17.6 C 0 km/h
88 08-04-2009 17:28:37 17.2 C 2.93 g/m*3 17.2 C 0 km/h
89 08-04-2009 17:40:35 17.5 C 2.98 g/m*3 17.5 C 0 km/h
90 08-04-2009 17:52:35 17.7 C 3.32 g/m*3 17.7 C 0 km/h
91 08-04-2009 18:04:35 17.7 C 3.17 g/m*3 17.7 C 0 km/h
92 08-04-2009 18:16:35 17.5 C 2.98 g/m*3 17.5 C 0 km/h
93 08-04-2009 18:28:35 17.2 C 2.93 g/m*3 17.2 C 0 km/h
94 08-04-2009 18:40:35 17.6 C 3.3 g/m*3 17.6 C 0 km/h
95 08-04-2009 18:52:35 17.8 C 3.19 g/m*3 17.8 C 0 km/h
96 08-04-2009 19:04:35 17.7 C 3.32 g/m*3 17.7 C 0 km/h
97 08-04-2009 19:16:34 18.3 C 3.28 g/m*3 18.3 C 0 km/h
98 08-04-2009 19:28:34 17.5 C 3.58 g/m*3 17.5 C 0 km/h
99 08-04-2009 19:40:34 16.6 C 4.24 g/m*3 16.6 C 0 km/h
100 08-04-2009 19:52:34 15.9 C 4.47 g/m*3 15.9 C 0 km/h
Sensor: Nr:Datum:Temp:Abs-Feuchte:Windchill:Wind:
Aussen-T/F 101 08-04-2009 20:04:34 15.6 C 4.65 g/m*3 15.6 C 0 km/h
102 08-04-2009 20:16:33 15.2 C 4.67 g/m*3 15.2 C 0 km/h
103 08-04-2009 20:28:33 15 C 4.87 g/m*3 15 C 0 km/h
104 08-04-2009 20:40:34 14.7 C 5.04 g/m*3 14.7 C 0 km/h
105 08-04-2009 20:52:34 14.6 C 5.26 g/m*3 14.6 C 0 km/h
106 08-04-2009 21:04:33 14.6 C 5.38 g/m*3 14.6 C 0 km/h
107 08-04-2009 21:16:34 14.6 C 5.38 g/m*3 14.6 C 0 km/h
108 08-04-2009 21:28:34 14.4 C 5.56 g/m*3 14.4 C 0 km/h
109 08-04-2009 21:40:33 14.2 C 5.62 g/m*3 14.2 C 0 km/h
110 08-04-2009 21:52:33 14.2 C 5.86 g/m*3 14.2 C 0 km/h
111 08-04-2009 22:04:33 13.8 C 5.96 g/m*3 13.8 C 0 km/h
112 08-04-2009 22:17:35 13.6 C 6.12 g/m*3 13.6 C 0 km/h
113 08-04-2009 22:29:35 13.2 C 6.2 g/m*3 13.2 C 0 km/h
114 08-04-2009 22:41:35 13.2 C 6.32 g/m*3 13.2 C 0 km/h
115 08-04-2009 22:53:35 13.2 C 6.32 g/m*3 13.2 C 0 km/h
116 08-04-2009 23:05:35 13.2 C 6.32 g/m*3 13.2 C 0 km/h
117 08-04-2009 23:17:35 13.2 C 6.32 g/m*3 13.2 C 0 km/h
118 08-04-2009 23:29:35 13.1 C 6.28 g/m*3 13.1 C 0 km/h
119 08-04-2009 23:41:35 13.2 C 6.32 g/m*3 13.2 C 0 km/h
120 08-04-2009 23:53:35 13.2 C 6.43 g/m*3 13.2 C 0 km/h
121 09-04-2009 00:05:35 13.2 C 6.54 g/m*3 13.2 C 0 km/h
122 09-04-2009 00:17:35 13.2 C 6.66 g/m*3 13.2 C 0 km/h
123 09-04-2009 00:29:35 13.2 C 6.66 g/m*3 13.2 C 0 km/h
124 09-04-2009 00:41:35 13.2 C 6.77 g/m*3 13.2 C 0 km/h
125 09-04-2009 00:53:35 13.2 C 6.77 g/m*3 13.2 C 0 km/h
Sensor: Nr:Datum:Temp:Abs-Feuchte:Windchill:Wind:
Aussen-T/F 126 09-04-2009 01:05:35 13.3 C 6.93 g/m*3 13.3 C 0 km/h
127 09-04-2009 01:17:35 13.2 C 7 g/m*3 13.2 C 0 km/h
128 09-04-2009 01:29:36 13.2 C 7.12 g/m*3 13.2 C 0 km/h
129 09-04-2009 01:41:36 13.1 C 7.19 g/m*3 13.1 C 0 km/h
130 09-04-2009 01:53:36 13.2 C 7.23 g/m*3 13.2 C 0 km/h
131 09-04-2009 02:05:36 13.2 C 7.23 g/m*3 13.2 C 0 km/h
132 09-04-2009 02:17:36 13.3 C 7.39 g/m*3 13.3 C 0 km/h
133 09-04-2009 02:29:36 13.4 C 7.32 g/m*3 13.4 C 0 km/h
134 09-04-2009 02:41:36 13.5 C 7.37 g/m*3 13.5 C 0 km/h
135 09-04-2009 02:53:36 13.5 C 7.37 g/m*3 13.5 C 0 km/h
136 09-04-2009 03:05:36 13.3 C 7.28 g/m*3 13.3 C 0 km/h
137 09-04-2009 03:17:36 13.3 C 7.28 g/m*3 13.3 C 0 km/h
138 09-04-2009 03:29:36 13 C 7.37 g/m*3 13 C 0 km/h
139 09-04-2009 03:41:36 13.2 C 7.46 g/m*3 13.2 C 0 km/h
140 09-04-2009 03:53:36 13.2 C 7.46 g/m*3 13.2 C 0 km/h
141 09-04-2009 04:05:36 13.4 C 7.44 g/m*3 13.4 C 0 km/h
142 09-04-2009 04:17:36 13.4 C 7.32 g/m*3 13.4 C 0 km/h
143 09-04-2009 04:29:36 13.1 C 7.3 g/m*3 13.1 C 0 km/h
144 09-04-2009 04:41:36 13.3 C 7.39 g/m*3 13.3 C 0 km/h
145 09-04-2009 04:53:36 13.3 C 7.39 g/m*3 13.3 C 0 km/h
146 09-04-2009 05:05:36 13.3 C 7.39 g/m*3 13.3 C 0 km/h
147 09-04-2009 05:17:36 12.4 C 7.98 g/m*3 12.4 C 0 km/h
148 09-04-2009 05:29:36 12.3 C 8.04 g/m*3 12.3 C 0 km/h
149 09-04-2009 05:41:37 12.4 C 8.09 g/m*3 12.4 C 0 km/h
150 09-04-2009 05:53:37 12.4 C 8.09 g/m*3 12.4 C 0 km/h
Sensor: Nr:Datum:Temp:Abs-Feuchte:Windchill:Wind:
Aussen-T/F 151 09-04-2009 06:05:37 12.1 C 8.26 g/m*3 12.1 C 0 km/h
152 09-04-2009 06:17:37 12.1 C 8.36 g/m*3 12.1 C 0 km/h
153 09-04-2009 06:29:37 12.3 C 8.36 g/m*3 12.3 C 0 km/h
154 09-04-2009 06:41:37 12.4 C 8.19 g/m*3 12.4 C 0 km/h
155 09-04-2009 06:53:37 12.4 C 8.19 g/m*3 12.4 C 0 km/h
156 09-04-2009 07:05:34 12.4 C 8.19 g/m*3 12.4 C 0 km/h
157 09-04-2009 07:17:34 12.5 C 8.25 g/m*3 12.5 C 0 km/h
158 09-04-2009 07:29:34 12.7 C 8.24 g/m*3 12.7 C 0 km/h
159 09-04-2009 07:41:33 12.8 C 8.29 g/m*3 12.8 C 0 km/h
160 09-04-2009 07:53:34 12.9 C 8.23 g/m*3 12.9 C 0 km/h
161 09-04-2009 08:05:33 13.1 C 8.22 g/m*3 13.1 C 0 km/h
162 09-04-2009 08:17:33 13.4 C 8.02 g/m*3 13.4 C 0 km/h
163 09-04-2009 08:29:33 13.6 C 8 g/m*3 13.6 C 0 km/h
164 09-04-2009 08:41:33 13.9 C 8.03 g/m*3 13.9 C 0 km/h
165 09-04-2009 08:53:33 14.1 C 7.89 g/m*3 14.1 C 0 km/h
166 09-04-2009 09:05:33 14.2 C 7.69 g/m*3 14.2 C 0 km/h
167 09-04-2009 09:17:33 14.6 C 7.76 g/m*3 14.6 C 0 km/h
168 09-04-2009 09:29:33 14.4 C 7.54 g/m*3 14.4 C 0 km/h
169 09-04-2009 09:41:33 14.5 C 7.59 g/m*3 14.5 C 0 km/h
170 09-04-2009 09:53:32 14.5 C 7.59 g/m*3 14.5 C 0 km/h
171 09-04-2009 10:05:33 14.6 C 7.38 g/m*3 14.6 C 0 km/h
172 09-04-2009 10:17:32 14.7 C 7.55 g/m*3 14.7 C 0 km/h
173 09-04-2009 10:29:32 14.6 C 7.38 g/m*3 14.6 C 0 km/h
174 09-04-2009 10:41:32 14.5 C 7.46 g/m*3 14.5 C 0 km/h
175 09-04-2009 10:53:32 14.8 C 7.6 g/m*3 14.8 C 0 km/h
Sensor: Nr:Datum:Temp:Abs-Feuchte:Windchill:Wind:
Aussen-T/F 176 09-04-2009 11:05:32 15.2 C 7.53 g/m*3 15.2 C 0 km/h
177 09-04-2009 11:17:31 15.4 C 7.49 g/m*3 15.4 C 0 km/h
178 09-04-2009 11:29:31 15.6 C 7.58 g/m*3 15.6 C 0 km/h
179 09-04-2009 11:41:31 15.6 C 7.58 g/m*3 15.6 C 0 km/h
180 09-04-2009 11:53:31 16.5 C 7.58 g/m*3 16.5 C 0 km/h
181 09-04-2009 12:05:31 16.5 C 7.44 g/m*3 16.5 C 0 km/h
182 09-04-2009 12:17:31 16.4 C 7.4 g/m*3 16.4 C 0 km/h
183 09-04-2009 12:29:31 16.4 C 7.4 g/m*3 16.4 C 0 km/h
184 09-04-2009 12:41:31 16.3 C 7.49 g/m*3 16.3 C 0 km/h
185 09-04-2009 12:53:31 16.7 C 7.39 g/m*3 16.7 C 0 km/h
186 09-04-2009 13:05:30 16.8 C 7.43 g/m*3 16.8 C 0 km/h
187 09-04-2009 13:17:31 17 C 7.23 g/m*3 17 C 0 km/h
188 09-04-2009 13:29:31 16.9 C 7.48 g/m*3 16.9 C 0 km/h
189 09-04-2009 13:41:31 17.2 C 7.32 g/m*3 17.2 C 0 km/h
190 09-04-2009 13:53:30 18.1 C 7.42 g/m*3 18.1 C 0 km/h
191 09-04-2009 14:05:30 18.5 C 7.28 g/m*3 18.5 C 0 km/h
192 09-04-2009 14:17:30 19.7 C 7.13 g/m*3 19.7 C 0 km/h
193 09-04-2009 14:29:30 19.1 C 6.88 g/m*3 19.1 C 0 km/h
194 09-04-2009 14:41:30 19.5 C 7.05 g/m*3 19.5 C 0 km/h
195 09-04-2009 14:53:29 20.4 C 7.25 g/m*3 20.4 C 0 km/h
196 09-04-2009 15:05:30 21.2 C 6.86 g/m*3 21.2 C 0 km/h
197 09-04-2009 15:17:29 21.1 C 6.82 g/m*3 21.1 C 0 km/h
198 09-04-2009 15:29:29 20.3 C 7.03 g/m*3 20.3 C 0 km/h
199 09-04-2009 15:41:29 19.7 C 6.96 g/m*3 19.7 C 0 km/h
200 09-04-2009 15:53:29 20.7 C 7.02 g/m*3 20.7 C 0 km/h
Sensor: Nr:Datum:Temp:Abs-Feuchte:Windchill:Wind:
Aussen-T/F 201 09-04-2009 16:05:29 20.9 C 6.92 g/m*3 20.9 C 0 km/h
202 09-04-2009 16:17:29 21 C 6.78 g/m*3 21 C 0 km/h
203 09-04-2009 16:29:29 21 C 6.59 g/m*3 21 C 0 km/h
204 09-04-2009 16:41:28 21.8 C 6.72 g/m*3 21.8 C 0 km/h
205 09-04-2009 16:53:29 22.7 C 6.67 g/m*3 22.7 C 0 km/h
206 09-04-2009 17:05:28 24 C 6.31 g/m*3 24 C 0 km/h
207 09-04-2009 17:17:28 23.8 C 6.24 g/m*3 23.8 C 0 km/h
208 09-04-2009 17:29:28 22.8 C 6.1 g/m*3 22.8 C 0 km/h
209 09-04-2009 17:41:28 22 C 6.02 g/m*3 22 C 0 km/h
210 09-04-2009 17:53:28 23.1 C 6.2 g/m*3 23.1 C 0 km/h
211 09-04-2009 18:05:28 23.8 C 6.24 g/m*3 23.8 C 0 km/h
212 09-04-2009 18:17:28 24.3 C 5.97 g/m*3 24.3 C 0 km/h
213 09-04-2009 18:29:28 24.2 C 5.94 g/m*3 24.2 C 0 km/h
214 09-04-2009 18:41:27 23.9 C 6.06 g/m*3 23.9 C 0 km/h
215 09-04-2009 18:53:02 23.7 C 5.99 g/m*3 23.7 C 0 km/h
216 09-04-2009 19:05:01 23.5 C 5.92 g/m*3 23.5 C 0 km/h
217 09-04-2009 19:17:02 23.1 C 5.79 g/m*3 23.1 C 0 km/h
218 09-04-2009 19:29:02 23 C 6.17 g/m*3 23 C 0 km/h
219 09-04-2009 19:41:01 22.6 C 6.43 g/m*3 22.6 C 0 km/h
220 09-04-2009 19:53:01 21.5 C 6.6 g/m*3 21.5 C 0 km/h
221 09-04-2009 20:05:02 19.9 C 6.7 g/m*3 19.9 C 0 km/h
222 09-04-2009 20:17:01 18.6 C 6.68 g/m*3 18.6 C 0 km/h
223 09-04-2009 20:29:01 17.9 C 6.87 g/m*3 17.9 C 0 km/h
224 09-04-2009 20:41:01 17.3 C 6.78 g/m*3 17.3 C 0 km/h
225 09-04-2009 20:53:01 16.9 C 6.9 g/m*3 16.9 C 0 km/h
Sensor: Nr:Datum:Temp:Abs-Feuchte:Windchill:Wind:
Aussen-T/F 226 09-04-2009 21:05:01 16.6 C 7.06 g/m*3 16.6 C 0 km/h
227 09-04-2009 21:17:00 16.2 C 6.9 g/m*3 16.2 C 0 km/h
228 09-04-2009 21:29:00 16 C 6.95 g/m*3 16 C 0 km/h
229 09-04-2009 21:41:00 15.8 C 7 g/m*3 15.8 C 0 km/h
230 09-04-2009 21:53:00 15.6 C 7.05 g/m*3 15.6 C 0 km/h
231 09-04-2009 22:05:00 15.4 C 7.09 g/m*3 15.4 C 0 km/h
232 09-04-2009 22:17:00 15.2 C 7.01 g/m*3 15.2 C 0 km/h
233 09-04-2009 22:29:00 14.9 C 7.14 g/m*3 14.9 C 0 km/h
234 09-04-2009 22:41:59 14.8 C 7.09 g/m*3 14.8 C 0 km/h
235 09-04-2009 23:05:59 14.6 C 7.13 g/m*3 14.6 C 0 km/h
236 09-04-2009 23:17:59 14.4 C 7.05 g/m*3 14.4 C 0 km/h
237 09-04-2009 23:29:59 14 C 7 g/m*3 14 C 0 km/h
238 09-04-2009 23:41:59 13.8 C 7.15 g/m*3 13.8 C 0 km/h
239 09-04-2009 23:53:59 13.7 C 7.22 g/m*3 13.7 C 0 km/h
240 10-04-2009 00:05:59 13.4 C 7.21 g/m*3 13.4 C 0 km/h
241 10-04-2009 00:17:59 13.2 C 7.23 g/m*3 13.2 C 0 km/h
242 10-04-2009 00:29:59 13 C 7.14 g/m*3 13 C 0 km/h
243 10-04-2009 00:41:59 12.9 C 7.21 g/m*3 12.9 C 0 km/h
244 10-04-2009 00:53:59 12.9 C 7.33 g/m*3 12.9 C 0 km/h
245 10-04-2009 01:05:59 12.8 C 7.28 g/m*3 12.8 C 0 km/h
246 10-04-2009 01:17:59 12.7 C 7.24 g/m*3 12.7 C 0 km/h
247 10-04-2009 01:29:59 12.7 C 7.35 g/m*3 12.7 C 0 km/h
248 10-04-2009 01:41:59 12.8 C 7.39 g/m*3 12.8 C 0 km/h
249 10-04-2009 01:53:59 12.8 C 7.39 g/m*3 12.8 C 0 km/h
250 10-04-2009 02:05:59 12.7 C 7.35 g/m*3 12.7 C 0 km/h
Sensor: Nr:Datum:Temp:Abs-Feuchte:Windchill:Wind:
Aussen-T/F 251 10-04-2009 02:17:59 12.3 C 7.38 g/m*3 12.3 C 0 km/h
252 10-04-2009 02:29:59 12.4 C 7.43 g/m*3 12.4 C 0 km/h
253 10-04-2009 02:41:59 12.5 C 7.37 g/m*3 12.5 C 0 km/h
254 10-04-2009 02:53:59 12.5 C 7.37 g/m*3 12.5 C 0 km/h
255 10-04-2009 03:06:00 12.4 C 7.32 g/m*3 12.4 C 0 km/h
256 10-04-2009 03:18:00 12.4 C 7.32 g/m*3 12.4 C 0 km/h
257 10-04-2009 03:30:00 12.4 C 7.43 g/m*3 12.4 C 0 km/h
258 10-04-2009 03:42:00 12.4 C 7.43 g/m*3 12.4 C 0 km/h
259 10-04-2009 03:54:00 12.2 C 7.34 g/m*3 12.2 C 0 km/h
260 10-04-2009 04:06:00 12.2 C 7.34 g/m*3 12.2 C 0 km/h
261 10-04-2009 04:18:00 12.1 C 7.4 g/m*3 12.1 C 0 km/h
262 10-04-2009 04:30:00 12.1 C 7.4 g/m*3 12.1 C 0 km/h
263 10-04-2009 04:42:00 12.1 C 7.4 g/m*3 12.1 C 0 km/h
264 10-04-2009 04:54:00 12.1 C 7.4 g/m*3 12.1 C 0 km/h
265 10-04-2009 05:06:00 12 C 7.35 g/m*3 12 C 0 km/h
266 10-04-2009 05:18:00 11.9 C 7.41 g/m*3 11.9 C 0 km/h
267 10-04-2009 05:30:00 11.9 C 7.52 g/m*3 11.9 C 0 km/h
268 10-04-2009 05:42:00 11.7 C 7.53 g/m*3 11.7 C 0 km/h
269 10-04-2009 05:54:00 11.8 C 7.58 g/m*3 11.8 C 0 km/h
270 10-04-2009 06:06:00 11.6 C 7.59 g/m*3 11.6 C 0 km/h
271 10-04-2009 06:18:00 11.5 C 7.64 g/m*3 11.5 C 0 km/h
272 10-04-2009 06:30:00 11.4 C 7.6 g/m*3 11.4 C 0 km/h
273 10-04-2009 06:42:00 11.3 C 7.55 g/m*3 11.3 C 0 km/h
274 10-04-2009 06:54:00 11.3 C 7.65 g/m*3 11.3 C 0 km/h
275 10-04-2009 07:06:00 11.1 C 7.55 g/m*3 11.1 C 0 km/h
Sensor: Nr:Datum:Temp:Abs-Feuchte:Windchill:Wind:
Aussen-T/F 276 10-04-2009 07:18:01 11.1 C 7.66 g/m*3 11.1 C 0 km/h
277 10-04-2009 07:30:01 11.1 C 7.66 g/m*3 11.1 C 0 km/h
278 10-04-2009 07:30:58 11.3 C 7.75 g/m*3 11.3 C 0 km/h
279 10-04-2009 07:42:58 11.4 C 7.7 g/m*3 11.4 C 0 km/h
280 10-04-2009 07:54:58 11.5 C 7.75 g/m*3 11.5 C 0 km/h
281 10-04-2009 08:06:58 11.7 C 7.84 g/m*3 11.7 C 0 km/h
282 10-04-2009 08:18:58 12 C 7.89 g/m*3 12 C 0 km/h
283 10-04-2009 08:30:58 12.3 C 7.93 g/m*3 12.3 C 0 km/h
284 10-04-2009 08:42:58 12.9 C 8.11 g/m*3 12.9 C 0 km/h
285 10-04-2009 08:54:58 13.2 C 7.81 g/m*3 13.2 C 0 km/h
286 10-04-2009 09:06:58 13.6 C 7.89 g/m*3 13.6 C 0 km/h
287 10-04-2009 09:18:57 13.8 C 7.86 g/m*3 13.8 C 0 km/h
288 10-04-2009 09:30:57 13.9 C 7.79 g/m*3 13.9 C 0 km/h
289 10-04-2009 09:42:57 14.3 C 7.86 g/m*3 14.3 C 0 km/h
290 10-04-2009 09:54:57 14.9 C 7.77 g/m*3 14.9 C 0 km/h
291 10-04-2009 10:06:57 15.5 C 7.8 g/m*3 15.5 C 0 km/h
292 10-04-2009 10:18:56 16.2 C 7.72 g/m*3 16.2 C 0 km/h
293 10-04-2009 10:30:57 16.8 C 7.72 g/m*3 16.8 C 0 km/h
294 10-04-2009 10:42:57 17.4 C 7.41 g/m*3 17.4 C 0 km/h
295 10-04-2009 10:54:56 17.8 C 7.59 g/m*3 17.8 C 0 km/h
296 10-04-2009 11:06:57 18.5 C 7.12 g/m*3 18.5 C 0 km/h
297 10-04-2009 11:18:56 19.2 C 6.76 g/m*3 19.2 C 0 km/h
298 10-04-2009 11:30:56 19.7 C 6.79 g/m*3 19.7 C 0 km/h
299 10-04-2009 11:42:56 20 C 6.57 g/m*3 20 C 0 km/h
300 10-04-2009 11:54:56 20.4 C 6.72 g/m*3 20.4 C 0 km/h
Sensor: Nr:Datum:Temp:Abs-Feuchte:Windchill:Wind:
Aussen-T/F 301 10-04-2009 12:06:56 21 C 6.41 g/m*3 21 C 0 km/h
302 10-04-2009 12:18:56 21.7 C 6.87 g/m*3 21.7 C 0 km/h
303 10-04-2009 12:30:55 22.1 C 6.25 g/m*3 22.1 C 0 km/h
304 10-04-2009 12:42:55 22.6 C 6.43 g/m*3 22.6 C 0 km/h
305 10-04-2009 12:54:56 23 C 6.37 g/m*3 23 C 0 km/h
306 10-04-2009 13:06:55 23.2 C 6.24 g/m*3 23.2 C 0 km/h
307 10-04-2009 13:18:55 23.4 C 5.89 g/m*3 23.4 C 0 km/h
308 10-04-2009 13:30:55 24.1 C 5.91 g/m*3 24.1 C 0 km/h
309 10-04-2009 13:42:55 24.7 C 5.66 g/m*3 24.7 C 0 km/h
310 10-04-2009 13:54:55 24.9 C 5.26 g/m*3 24.9 C 0 km/h
311 10-04-2009 14:06:54 25.5 C 5.45 g/m*3 25.5 C 0 km/h
312 10-04-2009 14:18:55 25 C 4.83 g/m*3 25 C 0 km/h
313 10-04-2009 14:30:55 25.9 C 4.84 g/m*3 25.9 C 0 km/h
314 10-04-2009 14:42:55 26.5 C 5.01 g/m*3 26.5 C 0 km/h
315 10-04-2009 14:54:54 26.7 C 5.06 g/m*3 26.7 C 0 km/h
316 10-04-2009 15:06:54 27.4 C 5.26 g/m*3 27.4 C 0 km/h
317 10-04-2009 15:18:54 27.5 C 5.29 g/m*3 27.5 C 0 km/h
318 10-04-2009 15:30:54 27.9 C 5.41 g/m*3 27.9 C 0 km/h
319 10-04-2009 15:42:54 28.4 C 5.56 g/m*3 28.4 C 0 km/h
320 10-04-2009 15:54:53 28.5 C 5.59 g/m*3 28.5 C 0 km/h
321 10-04-2009 16:06:54 28.9 C 5.71 g/m*3 28.9 C 0 km/h
322 10-04-2009 16:18:53 28.8 C 5.68 g/m*3 28.8 C 0 km/h
323 10-04-2009 16:30:53 28.3 C 5.53 g/m*3 28.3 C 0 km/h
324 10-04-2009 16:42:53 28.1 C 5.47 g/m*3 28.1 C 0 km/h
325 10-04-2009 16:54:53 27.9 C 5.41 g/m*3 27.9 C 0 km/h
Sensor: Nr:Datum:Temp:Abs-Feuchte:Windchill:Wind:
Aussen-T/F 326 10-04-2009 17:06:53 28.9 C 5.71 g/m*3 28.9 C 0 km/h
327 10-04-2009 17:18:53 29.3 C 5.84 g/m*3 29.3 C 0 km/h
328 10-04-2009 17:30:52 29.6 C 5.94 g/m*3 29.6 C 0 km/h
329 10-04-2009 17:42:52 29.9 C 6.03 g/m*3 29.9 C 0 km/h
330 10-04-2009 17:54:53 28.9 C 5.71 g/m*3 28.9 C 0 km/h
331 10-04-2009 18:06:52 28.5 C 5.59 g/m*3 28.5 C 0 km/h
332 10-04-2009 18:18:52 28.1 C 5.47 g/m*3 28.1 C 0 km/h
333 10-04-2009 18:30:52 26.3 C 4.95 g/m*3 26.3 C 0 km/h
334 10-04-2009 18:42:52 26.9 C 5.12 g/m*3 26.9 C 0 km/h
335 10-04-2009 18:54:52 27.2 C 5.2 g/m*3 27.2 C 0 km/h
336 10-04-2009 19:06:52 27 C 5.15 g/m*3 27 C 0 km/h
337 10-04-2009 19:18:52 27.1 C 5.18 g/m*3 27.1 C 0 km/h
338 10-04-2009 19:30:52 26.7 C 5.06 g/m*3 26.7 C 0 km/h
339 10-04-2009 19:42:52 25.6 C 5 g/m*3 25.6 C 0 km/h
340 10-04-2009 19:54:51 24.1 C 5.25 g/m*3 24.1 C 0 km/h
341 10-04-2009 20:06:52 22.8 C 5.28 g/m*3 22.8 C 0 km/h
342 10-04-2009 20:18:51 22 C 5.43 g/m*3 22 C 0 km/h
343 10-04-2009 20:30:51 21.2 C 5.56 g/m*3 21.2 C 0 km/h
344 10-04-2009 20:42:51 20.8 C 5.79 g/m*3 20.8 C 0 km/h
345 10-04-2009 20:54:50 20.4 C 6.01 g/m*3 20.4 C 0 km/h
346 10-04-2009 21:06:50 19.8 C 6.15 g/m*3 19.8 C 0 km/h
347 10-04-2009 21:18:51 19.7 C 6.28 g/m*3 19.7 C 0 km/h
348 10-04-2009 21:30:51 19.5 C 6.38 g/m*3 19.5 C 0 km/h
349 10-04-2009 21:42:51 19.2 C 6.27 g/m*3 19.2 C 0 km/h
350 10-04-2009 21:54:50 18.7 C 6.4 g/m*3 18.7 C 0 km/h
Sensor: Nr:Datum:Temp:Abs-Feuchte:Windchill:Wind:
Aussen-T/F 351 10-04-2009 22:06:51 18.5 C 6.33 g/m*3 18.5 C 0 km/h
352 10-04-2009 22:18:50 18.3 C 6.41 g/m*3 18.3 C 0 km/h
353 10-04-2009 22:31:51 18 C 6.3 g/m*3 18 C 0 km/h
354 10-04-2009 22:43:51 17.7 C 6.49 g/m*3 17.7 C 0 km/h
355 10-04-2009 22:55:51 17.4 C 6.52 g/m*3 17.4 C 0 km/h
356 10-04-2009 23:07:51 17.1 C 6.4 g/m*3 17.1 C 0 km/h
357 10-04-2009 23:19:51 16.8 C 6.58 g/m*3 16.8 C 0 km/h
358 10-04-2009 23:31:51 16.7 C 6.68 g/m*3 16.7 C 0 km/h
359 10-04-2009 23:43:51 16.3 C 6.38 g/m*3 16.3 C 0 km/h
360 10-04-2009 23:55:51 16 C 6.54 g/m*3 16 C 0 km/h

Legende:
   Min
   Max


Maximal/Minimal-Werte vom 08.04.2009 - 10.04.2009

Sensor Min Max Avg
Temp
(Aussen-T/F)
11.1 °C
08-04-2009  07:28:42
29.9 °C
10-04-2009  17:42:52
16.35 °C
Abs-Feuchte
(Aussen-T/F)
2.93 g/m*3
08-04-2009  17:28:37
8.36 g/m*3
09-04-2009  06:17:37
6.51 g/m*3
Windchill
(Aussen-T/F)
11.1 C
08-04-2009  07:28:42
29.9 C
10-04-2009  17:42:52
16.31 C

Die Daten stammen von einer Davis Vantage Pro 2 Wetter-Station und werden unter Linux mit der Software wview2wettercgi und aufbereitet. Alle Angaben erfolgen ohne Gewähr für ihre Vollständigkeit oder Richtigkeit.
Kontakt: Rainer Krienke krienke@uni-koblenz.de . Meine Webseiten an der Uni Koblenz oder privat.
Version: $Revision: 0.78 $